sensor_id;sensor_type;location;lat;lon;timestamp;P1;P2;P0
65012;PMS5003;51715;39.432;-77.518;2023-03-01T00:01:23;5;4;
65012;PMS5003;51715;39.432;-77.518;2023-03-01T00:03:53;6;5;
65012;PMS5003;51715;39.432;-77.518;2023-03-01T00:06:22;5;5;
65012;PMS5003;51715;39.432;-77.518;2023-03-01T00:08:50;4;4;
65012;PMS5003;51715;39.432;-77.518;2023-03-01T00:11:20;6;4;
65012;PMS5003;51715;39.432;-77.518;2023-03-01T00:13:51;5;5;
65012;PMS5003;51715;39.432;-77.518;2023-03-01T00:16:22;6;6;
65012;PMS5003;51715;39.432;-77.518;2023-03-01T00:18:53;5;5;
65012;PMS5003;51715;39.432;-77.518;2023-03-01T00:21:23;8;7;
65012;PMS5003;51715;39.432;-77.518;2023-03-01T00:23:51;8;8;
65012;PMS5003;51715;39.432;-77.518;2023-03-01T00:26:22;9;9;
65012;PMS5003;51715;39.432;-77.518;2023-03-01T00:28:52;18;18;
65012;PMS5003;51715;39.432;-77.518;2023-03-01T00:31:22;17;16;
65012;PMS5003;51715;39.432;-77.518;2023-03-01T00:33:52;11;11;
65012;PMS5003;51715;39.432;-77.518;2023-03-01T00:36:23;9;9;
65012;PMS5003;51715;39.432;-77.518;2023-03-01T00:38:52;8;7;
65012;PMS5003;51715;39.432;-77.518;2023-03-01T00:41:21;11;7;
65012;PMS5003;51715;39.432;-77.518;2023-03-01T00:43:50;7;6;
65012;PMS5003;51715;39.432;-77.518;2023-03-01T00:46:19;5;5;
65012;PMS5003;51715;39.432;-77.518;2023-03-01T00:48:49;4;4;
65012;PMS5003;51715;39.432;-77.518;2023-03-01T00:51:20;2;2;
65012;PMS5003;51715;39.432;-77.518;2023-03-01T00:53:50;4;4;
65012;PMS5003;51715;39.432;-77.518;2023-03-01T00:56:21;3;3;
65012;PMS5003;51715;39.432;-77.518;2023-03-01T00:58:50;3;3;
65012;PMS5003;51715;39.432;-77.518;2023-03-01T01:01:19;3;3;
65012;PMS5003;51715;39.432;-77.518;2023-03-01T01:03:50;4;4;
65012;PMS5003;51715;39.432;-77.518;2023-03-01T01:06:20;5;4;
65012;PMS5003;51715;39.432;-77.518;2023-03-01T01:08:52;4;4;
65012;PMS5003;51715;39.432;-77.518;2023-03-01T01:11:22;4;4;
65012;PMS5003;51715;39.432;-77.518;2023-03-01T01:13:53;5;5;
65012;PMS5003;51715;39.432;-77.518;2023-03-01T01:16:24;6;5;
65012;PMS5003;51715;39.432;-77.518;2023-03-01T01:18:54;5;5;
65012;PMS5003;51715;39.432;-77.518;2023-03-01T01:21:23;4;4;
65012;PMS5003;51715;39.432;-77.518;2023-03-01T01:23:52;5;5;
65012;PMS5003;51715;39.432;-77.518;2023-03-01T01:26:21;5;5;
65012;PMS5003;51715;39.432;-77.518;2023-03-01T01:28:51;4;4;
65012;PMS5003;51715;39.432;-77.518;2023-03-01T01:31:21;4;4;
65012;PMS5003;51715;39.432;-77.518;2023-03-01T01:33:51;5;5;
65012;PMS5003;51715;39.432;-77.518;2023-03-01T01:36:19;9;9;
65012;PMS5003;51715;39.432;-77.518;2023-03-01T01:38:48;8;8;
65012;PMS5003;51715;39.432;-77.518;2023-03-01T01:41:17;4;4;
65012;PMS5003;51715;39.432;-77.518;2023-03-01T01:43:47;4;4;
65012;PMS5003;51715;39.432;-77.518;2023-03-01T01:46:37;7;7;
65012;PMS5003;51715;39.432;-77.518;2023-03-01T01:49:10;4;4;
65012;PMS5003;51715;39.432;-77.518;2023-03-01T01:51:45;3;3;
65012;PMS5003;51715;39.432;-77.518;2023-03-01T01:54:18;8;7;
65012;PMS5003;51715;39.432;-77.518;2023-03-01T01:56:50;3;3;
65012;PMS5003;51715;39.432;-77.518;2023-03-01T01:59:25;7;7;
65012;PMS5003;51715;39.432;-77.518;2023-03-01T02:01:58;8;8;
65012;PMS5003;51715;39.432;-77.518;2023-03-01T02:04:29;8;8;
65012;PMS5003;51715;39.432;-77.518;2023-03-01T02:07:01;7;7;
65012;PMS5003;51715;39.432;-77.518;2023-03-01T02:09:34;7;7;
65012;PMS5003;51715;39.432;-77.518;2023-03-01T02:12:03;7;7;
65012;PMS5003;51715;39.432;-77.518;2023-03-01T02:14:33;8;7;
65012;PMS5003;51715;39.432;-77.518;2023-03-01T02:17:02;10;8;
65012;PMS5003;51715;39.432;-77.518;2023-03-01T02:19:34;18;17;
65012;PMS5003;51715;39.432;-77.518;2023-03-01T02:22:12;11;11;
65012;PMS5003;51715;39.432;-77.518;2023-03-01T02:24:59;10;8;
65012;PMS5003;51715;39.432;-77.518;2023-03-01T02:27:40;9;9;
65012;PMS5003;51715;39.432;-77.518;2023-03-01T02:30:14;6;6;
65012;PMS5003;51715;39.432;-77.518;2023-03-01T02:32:45;7;7;
65012;PMS5003;51715;39.432;-77.518;2023-03-01T02:35:16;12;11;
65012;PMS5003;51715;39.432;-77.518;2023-03-01T02:37:46;11;8;
65012;PMS5003;51715;39.432;-77.518;2023-03-01T02:40:17;11;10;
65012;PMS5003;51715;39.432;-77.518;2023-03-01T02:40:18;11;10;
65012;PMS5003;51715;39.432;-77.518;2023-03-01T02:42:49;26;23;
65012;PMS5003;51715;39.432;-77.518;2023-03-01T02:45:21;34;27;
65012;PMS5003;51715;39.432;-77.518;2023-03-01T02:47:50;23;17;
65012;PMS5003;51715;39.432;-77.518;2023-03-01T02:50:25;21;20;
65012;PMS5003;51715;39.432;-77.518;2023-03-01T02:53:13;14;13;
65012;PMS5003;51715;39.432;-77.518;2023-03-01T02:55:49;20;16;
65012;PMS5003;51715;39.432;-77.518;2023-03-01T02:58:17;19;17;
65012;PMS5003;51715;39.432;-77.518;2023-03-01T03:00:46;19;18;
65012;PMS5003;51715;39.432;-77.518;2023-03-01T03:03:15;15;14;
65012;PMS5003;51715;39.432;-77.518;2023-03-01T03:05:46;12;11;
65012;PMS5003;51715;39.432;-77.518;2023-03-01T03:08:15;15;13;
65012;PMS5003;51715;39.432;-77.518;2023-03-01T03:10:44;13;12;
65012;PMS5003;51715;39.432;-77.518;2023-03-01T03:13:13;12;11;
65012;PMS5003;51715;39.432;-77.518;2023-03-01T03:15:42;15;13;
65012;PMS5003;51715;39.432;-77.518;2023-03-01T03:18:12;15;11;
65012;PMS5003;51715;39.432;-77.518;2023-03-01T03:20:43;13;12;
65012;PMS5003;51715;39.432;-77.518;2023-03-01T03:23:12;11;11;
65012;PMS5003;51715;39.432;-77.518;2023-03-01T03:25:40;7;7;
65012;PMS5003;51715;39.432;-77.518;2023-03-01T03:28:10;8;8;
65012;PMS5003;51715;39.432;-77.518;2023-03-01T03:30:39;11;10;
65012;PMS5003;51715;39.432;-77.518;2023-03-01T03:33:08;9;9;
65012;PMS5003;51715;39.432;-77.518;2023-03-01T03:35:39;10;10;
65012;PMS5003;51715;39.432;-77.518;2023-03-01T03:38:09;11;11;
65012;PMS5003;51715;39.432;-77.518;2023-03-01T03:40:40;9;9;
65012;PMS5003;51715;39.432;-77.518;2023-03-01T03:43:12;14;11;
65012;PMS5003;51715;39.432;-77.518;2023-03-01T03:45:41;50;43;
65012;PMS5003;51715;39.432;-77.518;2023-03-01T03:48:11;9;9;
65012;PMS5003;51715;39.432;-77.518;2023-03-01T03:50:40;13;13;
65012;PMS5003;51715;39.432;-77.518;2023-03-01T03:53:13;24;22;
65012;PMS5003;51715;39.432;-77.518;2023-03-01T03:55:42;21;20;
65012;PMS5003;51715;39.432;-77.518;2023-03-01T03:58:10;17;16;
65012;PMS5003;51715;39.432;-77.518;2023-03-01T04:00:40;15;14;
65012;PMS5003;51715;39.432;-77.518;2023-03-01T04:03:12;13;10;
65012;PMS5003;51715;39.432;-77.518;2023-03-01T04:05:42;11;11;
65012;PMS5003;51715;39.432;-77.518;2023-03-01T04:08:11;10;9;
65012;PMS5003;51715;39.432;-77.518;2023-03-01T04:10:41;10;9;
65012;PMS5003;51715;39.432;-77.518;2023-03-01T04:13:12;13;10;
65012;PMS5003;51715;39.432;-77.518;2023-03-01T04:15:42;13;11;
65012;PMS5003;51715;39.432;-77.518;2023-03-01T04:18:11;10;10;
65012;PMS5003;51715;39.432;-77.518;2023-03-01T04:20:41;19;19;
65012;PMS5003;51715;39.432;-77.518;2023-03-01T04:23:12;15;15;
65012;PMS5003;51715;39.432;-77.518;2023-03-01T04:25:44;21;21;
65012;PMS5003;51715;39.432;-77.518;2023-03-01T04:28:14;19;18;
65012;PMS5003;51715;39.432;-77.518;2023-03-01T04:30:42;21;20;
65012;PMS5003;51715;39.432;-77.518;2023-03-01T04:33:11;20;20;
65012;PMS5003;51715;39.432;-77.518;2023-03-01T04:35:39;9;9;
65012;PMS5003;51715;39.432;-77.518;2023-03-01T04:38:08;12;11;
65012;PMS5003;51715;39.432;-77.518;2023-03-01T04:40:37;7;7;
65012;PMS5003;51715;39.432;-77.518;2023-03-01T04:43:07;16;16;
65012;PMS5003;51715;39.432;-77.518;2023-03-01T04:45:36;11;11;
65012;PMS5003;51715;39.432;-77.518;2023-03-01T04:48:04;8;8;
65012;PMS5003;51715;39.432;-77.518;2023-03-01T04:50:34;9;8;
65012;PMS5003;51715;39.432;-77.518;2023-03-01T04:53:03;8;7;
65012;PMS5003;51715;39.432;-77.518;2023-03-01T04:55:33;6;6;
65012;PMS5003;51715;39.432;-77.518;2023-03-01T04:58:02;6;6;
65012;PMS5003;51715;39.432;-77.518;2023-03-01T05:04:02;4;4;
65012;PMS5003;51715;39.432;-77.518;2023-03-01T05:06:32;5;5;
65012;PMS5003;51715;39.432;-77.518;2023-03-01T05:09:01;4;4;
65012;PMS5003;51715;39.432;-77.518;2023-03-01T05:11:28;3;3;
65012;PMS5003;51715;39.432;-77.518;2023-03-01T05:13:58;4;4;
65012;PMS5003;51715;39.432;-77.518;2023-03-01T05:16:26;5;5;
65012;PMS5003;51715;39.432;-77.518;2023-03-01T05:18:54;4;4;
65012;PMS5003;51715;39.432;-77.518;2023-03-01T05:21:22;5;5;
65012;PMS5003;51715;39.432;-77.518;2023-03-01T05:23:52;5;5;
65012;PMS5003;51715;39.432;-77.518;2023-03-01T05:26:20;5;5;
65012;PMS5003;51715;39.432;-77.518;2023-03-01T05:28:48;4;4;
65012;PMS5003;51715;39.432;-77.518;2023-03-01T05:31:16;5;5;
65012;PMS5003;51715;39.432;-77.518;2023-03-01T05:33:45;6;6;
65012;PMS5003;51715;39.432;-77.518;2023-03-01T05:36:13;5;5;
65012;PMS5003;51715;39.432;-77.518;2023-03-01T05:38:41;6;6;
65012;PMS5003;51715;39.432;-77.518;2023-03-01T05:41:13;7;6;
65012;PMS5003;51715;39.432;-77.518;2023-03-01T05:43:42;8;6;
65012;PMS5003;51715;39.432;-77.518;2023-03-01T05:46:11;6;6;
65012;PMS5003;51715;39.432;-77.518;2023-03-01T05:48:39;5;5;
65012;PMS5003;51715;39.432;-77.518;2023-03-01T05:51:07;10;9;
65012;PMS5003;51715;39.432;-77.518;2023-03-01T05:53:35;5;5;
65012;PMS5003;51715;39.432;-77.518;2023-03-01T05:56:04;6;6;
65012;PMS5003;51715;39.432;-77.518;2023-03-01T05:58:33;8;7;
65012;PMS5003;51715;39.432;-77.518;2023-03-01T06:01:01;5;5;
65012;PMS5003;51715;39.432;-77.518;2023-03-01T06:03:30;6;6;
65012;PMS5003;51715;39.432;-77.518;2023-03-01T06:05:58;5;5;
65012;PMS5003;51715;39.432;-77.518;2023-03-01T06:08:26;7;5;
65012;PMS5003;51715;39.432;-77.518;2023-03-01T06:10:55;6;6;
65012;PMS5003;51715;39.432;-77.518;2023-03-01T06:13:23;6;6;
65012;PMS5003;51715;39.432;-77.518;2023-03-01T06:15:52;8;8;
65012;PMS5003;51715;39.432;-77.518;2023-03-01T06:18:20;7;7;
65012;PMS5003;51715;39.432;-77.518;2023-03-01T06:20:52;8;8;
65012;PMS5003;51715;39.432;-77.518;2023-03-01T06:23:20;7;7;
65012;PMS5003;51715;39.432;-77.518;2023-03-01T06:25:49;8;8;
65012;PMS5003;51715;39.432;-77.518;2023-03-01T06:28:17;5;5;
65012;PMS5003;51715;39.432;-77.518;2023-03-01T06:30:45;10;8;
65012;PMS5003;51715;39.432;-77.518;2023-03-01T06:33:13;10;7;
65012;PMS5003;51715;39.432;-77.518;2023-03-01T06:35:41;10;9;
65012;PMS5003;51715;39.432;-77.518;2023-03-01T06:38:09;9;9;
65012;PMS5003;51715;39.432;-77.518;2023-03-01T06:40:37;8;8;
65012;PMS5003;51715;39.432;-77.518;2023-03-01T06:43:05;8;8;
65012;PMS5003;51715;39.432;-77.518;2023-03-01T06:45:33;7;6;
65012;PMS5003;51715;39.432;-77.518;2023-03-01T06:48:02;7;7;
65012;PMS5003;51715;39.432;-77.518;2023-03-01T06:50:31;7;7;
65012;PMS5003;51715;39.432;-77.518;2023-03-01T06:52:59;6;6;
65012;PMS5003;51715;39.432;-77.518;2023-03-01T06:55:28;6;6;
65012;PMS5003;51715;39.432;-77.518;2023-03-01T06:57:57;7;7;
65012;PMS5003;51715;39.432;-77.518;2023-03-01T07:00:26;10;7;
65012;PMS5003;51715;39.432;-77.518;2023-03-01T07:02:56;8;8;
65012;PMS5003;51715;39.432;-77.518;2023-03-01T07:05:26;8;8;
65012;PMS5003;51715;39.432;-77.518;2023-03-01T07:07:55;8;8;
65012;PMS5003;51715;39.432;-77.518;2023-03-01T07:10:23;9;9;
65012;PMS5003;51715;39.432;-77.518;2023-03-01T07:12:54;7;7;
65012;PMS5003;51715;39.432;-77.518;2023-03-01T07:15:23;28;22;
65012;PMS5003;51715;39.432;-77.518;2023-03-01T07:17:53;24;23;
65012;PMS5003;51715;39.432;-77.518;2023-03-01T07:20:22;23;19;
65012;PMS5003;51715;39.432;-77.518;2023-03-01T07:22:51;13;12;
65012;PMS5003;51715;39.432;-77.518;2023-03-01T07:25:20;31;28;
65012;PMS5003;51715;39.432;-77.518;2023-03-01T07:27:49;30;26;
65012;PMS5003;51715;39.432;-77.518;2023-03-01T07:30:19;23;23;
65012;PMS5003;51715;39.432;-77.518;2023-03-01T07:32:47;30;26;
65012;PMS5003;51715;39.432;-77.518;2023-03-01T07:35:15;15;12;
65012;PMS5003;51715;39.432;-77.518;2023-03-01T07:37:43;21;15;
65012;PMS5003;51715;39.432;-77.518;2023-03-01T07:40:12;18;17;
65012;PMS5003;51715;39.432;-77.518;2023-03-01T07:42:40;15;13;
65012;PMS5003;51715;39.432;-77.518;2023-03-01T07:45:09;14;12;
65012;PMS5003;51715;39.432;-77.518;2023-03-01T07:47:37;15;13;
65012;PMS5003;51715;39.432;-77.518;2023-03-01T07:50:07;10;9;
65012;PMS5003;51715;39.432;-77.518;2023-03-01T07:52:36;11;11;
65012;PMS5003;51715;39.432;-77.518;2023-03-01T07:55:04;11;11;
65012;PMS5003;51715;39.432;-77.518;2023-03-01T07:57:33;11;11;
65012;PMS5003;51715;39.432;-77.518;2023-03-01T08:00:00;7;7;
65012;PMS5003;51715;39.432;-77.518;2023-03-01T08:02:29;8;8;
65012;PMS5003;51715;39.432;-77.518;2023-03-01T08:04:57;9;8;
65012;PMS5003;51715;39.432;-77.518;2023-03-01T08:07:25;6;6;
65012;PMS5003;51715;39.432;-77.518;2023-03-01T08:09:53;7;7;
65012;PMS5003;51715;39.432;-77.518;2023-03-01T08:12:21;8;8;
65012;PMS5003;51715;39.432;-77.518;2023-03-01T08:14:50;8;7;
65012;PMS5003;51715;39.432;-77.518;2023-03-01T08:17:18;10;8;
65012;PMS5003;51715;39.432;-77.518;2023-03-01T08:19:47;8;8;
65012;PMS5003;51715;39.432;-77.518;2023-03-01T08:22:15;7;7;
65012;PMS5003;51715;39.432;-77.518;2023-03-01T08:24:43;10;8;
65012;PMS5003;51715;39.432;-77.518;2023-03-01T08:27:11;11;11;
65012;PMS5003;51715;39.432;-77.518;2023-03-01T08:29:39;7;7;
65012;PMS5003;51715;39.432;-77.518;2023-03-01T08:32:07;9;8;
65012;PMS5003;51715;39.432;-77.518;2023-03-01T08:34:35;9;9;
65012;PMS5003;51715;39.432;-77.518;2023-03-01T08:37:03;9;9;
65012;PMS5003;51715;39.432;-77.518;2023-03-01T08:39:31;9;9;
65012;PMS5003;51715;39.432;-77.518;2023-03-01T08:42:00;7;7;
65012;PMS5003;51715;39.432;-77.518;2023-03-01T08:44:28;12;11;
65012;PMS5003;51715;39.432;-77.518;2023-03-01T08:46:57;13;13;
65012;PMS5003;51715;39.432;-77.518;2023-03-01T08:49:25;13;12;
65012;PMS5003;51715;39.432;-77.518;2023-03-01T08:51:53;16;12;
65012;PMS5003;51715;39.432;-77.518;2023-03-01T08:54:22;12;11;
65012;PMS5003;51715;39.432;-77.518;2023-03-01T08:56:50;11;11;
65012;PMS5003;51715;39.432;-77.518;2023-03-01T08:59:18;15;14;
65012;PMS5003;51715;39.432;-77.518;2023-03-01T09:01:46;16;13;
65012;PMS5003;51715;39.432;-77.518;2023-03-01T09:04:14;13;13;
65012;PMS5003;51715;39.432;-77.518;2023-03-01T09:06:42;10;10;
65012;PMS5003;51715;39.432;-77.518;2023-03-01T09:09:12;15;14;
65012;PMS5003;51715;39.432;-77.518;2023-03-01T09:11:42;10;10;
65012;PMS5003;51715;39.432;-77.518;2023-03-01T09:14:11;9;9;
65012;PMS5003;51715;39.432;-77.518;2023-03-01T09:16:39;11;11;
65012;PMS5003;51715;39.432;-77.518;2023-03-01T09:19:08;12;12;
65012;PMS5003;51715;39.432;-77.518;2023-03-01T09:21:36;12;11;
65012;PMS5003;51715;39.432;-77.518;2023-03-01T09:24:05;12;12;
65012;PMS5003;51715;39.432;-77.518;2023-03-01T09:26:33;12;10;
65012;PMS5003;51715;39.432;-77.518;2023-03-01T09:29:02;11;10;
65012;PMS5003;51715;39.432;-77.518;2023-03-01T09:31:30;10;9;
65012;PMS5003;51715;39.432;-77.518;2023-03-01T09:33:58;10;10;
65012;PMS5003;51715;39.432;-77.518;2023-03-01T09:36:26;11;11;
65012;PMS5003;51715;39.432;-77.518;2023-03-01T09:38:54;9;9;
65012;PMS5003;51715;39.432;-77.518;2023-03-01T09:41:36;15;14;
65012;PMS5003;51715;39.432;-77.518;2023-03-01T09:44:20;12;12;
65012;PMS5003;51715;39.432;-77.518;2023-03-01T09:46:55;13;11;
65012;PMS5003;51715;39.432;-77.518;2023-03-01T09:49:24;12;10;
65012;PMS5003;51715;39.432;-77.518;2023-03-01T09:51:56;12;11;
65012;PMS5003;51715;39.432;-77.518;2023-03-01T09:54:27;9;9;
65012;PMS5003;51715;39.432;-77.518;2023-03-01T09:56:59;11;11;
65012;PMS5003;51715;39.432;-77.518;2023-03-01T09:59:37;12;11;
65012;PMS5003;51715;39.432;-77.518;2023-03-01T10:02:22;12;12;
65012;PMS5003;51715;39.432;-77.518;2023-03-01T10:04:56;10;9;
65012;PMS5003;51715;39.432;-77.518;2023-03-01T10:07:37;9;9;
65012;PMS5003;51715;39.432;-77.518;2023-03-01T10:10:15;13;12;
65012;PMS5003;51715;39.432;-77.518;2023-03-01T10:12:50;11;11;
65012;PMS5003;51715;39.432;-77.518;2023-03-01T10:15:22;12;12;
65012;PMS5003;51715;39.432;-77.518;2023-03-01T10:18:01;13;12;
65012;PMS5003;51715;39.432;-77.518;2023-03-01T10:20:36;15;15;
65012;PMS5003;51715;39.432;-77.518;2023-03-01T10:23:14;16;14;
65012;PMS5003;51715;39.432;-77.518;2023-03-01T10:25:47;12;12;
65012;PMS5003;51715;39.432;-77.518;2023-03-01T10:28:25;11;11;
65012;PMS5003;51715;39.432;-77.518;2023-03-01T10:30:58;15;12;
65012;PMS5003;51715;39.432;-77.518;2023-03-01T10:33:27;11;11;
65012;PMS5003;51715;39.432;-77.518;2023-03-01T10:36:00;13;12;
65012;PMS5003;51715;39.432;-77.518;2023-03-01T10:38:30;11;11;
65012;PMS5003;51715;39.432;-77.518;2023-03-01T10:41:13;10;9;
65012;PMS5003;51715;39.432;-77.518;2023-03-01T10:43:43;7;7;
65012;PMS5003;51715;39.432;-77.518;2023-03-01T10:46:26;13;11;
65012;PMS5003;51715;39.432;-77.518;2023-03-01T10:49:13;11;10;
65012;PMS5003;51715;39.432;-77.518;2023-03-01T10:51:46;12;10;
65012;PMS5003;51715;39.432;-77.518;2023-03-01T10:54:17;15;15;
65012;PMS5003;51715;39.432;-77.518;2023-03-01T10:56:47;13;12;
65012;PMS5003;51715;39.432;-77.518;2023-03-01T10:59:21;13;12;
65012;PMS5003;51715;39.432;-77.518;2023-03-01T11:02:27;14;13;
65012;PMS5003;51715;39.432;-77.518;2023-03-01T11:04:58;12;12;
65012;PMS5003;51715;39.432;-77.518;2023-03-01T11:07:29;12;11;
65012;PMS5003;51715;39.432;-77.518;2023-03-01T11:09:57;12;12;
65012;PMS5003;51715;39.432;-77.518;2023-03-01T11:12:25;11;11;
65012;PMS5003;51715;39.432;-77.518;2023-03-01T11:14:54;16;13;
65012;PMS5003;51715;39.432;-77.518;2023-03-01T11:17:24;16;15;
65012;PMS5003;51715;39.432;-77.518;2023-03-01T11:20:05;18;18;
65012;PMS5003;51715;39.432;-77.518;2023-03-01T11:22:46;21;20;
65012;PMS5003;51715;39.432;-77.518;2023-03-01T11:25:19;21;16;
65012;PMS5003;51715;39.432;-77.518;2023-03-01T11:27:51;16;16;
65012;PMS5003;51715;39.432;-77.518;2023-03-01T11:30:21;16;16;
65012;PMS5003;51715;39.432;-77.518;2023-03-01T11:32:56;16;14;
65012;PMS5003;51715;39.432;-77.518;2023-03-01T11:35:32;13;12;
65012;PMS5003;51715;39.432;-77.518;2023-03-01T11:38:09;14;14;
65012;PMS5003;51715;39.432;-77.518;2023-03-01T11:40:47;18;15;
65012;PMS5003;51715;39.432;-77.518;2023-03-01T11:43:25;12;12;
65012;PMS5003;51715;39.432;-77.518;2023-03-01T11:46:11;10;10;
65012;PMS5003;51715;39.432;-77.518;2023-03-01T11:49:03;10;9;
65012;PMS5003;51715;39.432;-77.518;2023-03-01T11:51:46;12;12;
65012;PMS5003;51715;39.432;-77.518;2023-03-01T11:54:26;13;11;
65012;PMS5003;51715;39.432;-77.518;2023-03-01T11:57:11;11;11;
65012;PMS5003;51715;39.432;-77.518;2023-03-01T11:59:53;13;12;
65012;PMS5003;51715;39.432;-77.518;2023-03-01T12:02:42;14;14;
65012;PMS5003;51715;39.432;-77.518;2023-03-01T12:05:47;16;14;
65012;PMS5003;51715;39.432;-77.518;2023-03-01T12:08:27;14;14;
65012;PMS5003;51715;39.432;-77.518;2023-03-01T12:11:03;14;13;
65012;PMS5003;51715;39.432;-77.518;2023-03-01T12:13:53;13;12;
65012;PMS5003;51715;39.432;-77.518;2023-03-01T12:16:40;15;14;
65012;PMS5003;51715;39.432;-77.518;2023-03-01T12:20:29;11;10;
65012;PMS5003;51715;39.432;-77.518;2023-03-01T12:25:31;16;14;
65012;PMS5003;51715;39.432;-77.518;2023-03-01T12:28:14;17;17;
65012;PMS5003;51715;39.432;-77.518;2023-03-01T12:30:59;16;16;
65012;PMS5003;51715;39.432;-77.518;2023-03-01T12:33:44;17;17;
65012;PMS5003;51715;39.432;-77.518;2023-03-01T12:36:24;12;12;
65012;PMS5003;51715;39.432;-77.518;2023-03-01T12:39:09;18;16;
65012;PMS5003;51715;39.432;-77.518;2023-03-01T12:41:53;14;14;
65012;PMS5003;51715;39.432;-77.518;2023-03-01T12:44:30;18;16;
65012;PMS5003;51715;39.432;-77.518;2023-03-01T12:47:14;10;10;
65012;PMS5003;51715;39.432;-77.518;2023-03-01T12:49:54;14;14;
65012;PMS5003;51715;39.432;-77.518;2023-03-01T12:52:27;14;13;
65012;PMS5003;51715;39.432;-77.518;2023-03-01T12:55:17;17;15;
65012;PMS5003;51715;39.432;-77.518;2023-03-01T12:57:55;18;17;
65012;PMS5003;51715;39.432;-77.518;2023-03-01T13:00:35;17;17;
65012;PMS5003;51715;39.432;-77.518;2023-03-01T13:03:10;17;16;
65012;PMS5003;51715;39.432;-77.518;2023-03-01T13:05:53;18;18;
65012;PMS5003;51715;39.432;-77.518;2023-03-01T13:08:33;17;16;
65012;PMS5003;51715;39.432;-77.518;2023-03-01T13:11:11;15;13;
65012;PMS5003;51715;39.432;-77.518;2023-03-01T13:13:46;19;19;
65012;PMS5003;51715;39.432;-77.518;2023-03-01T13:16:38;16;16;
65012;PMS5003;51715;39.432;-77.518;2023-03-01T13:19:10;16;15;
65012;PMS5003;51715;39.432;-77.518;2023-03-01T13:21:43;28;22;
65012;PMS5003;51715;39.432;-77.518;2023-03-01T13:24:28;18;17;
65012;PMS5003;51715;39.432;-77.518;2023-03-01T13:27:10;16;14;
65012;PMS5003;51715;39.432;-77.518;2023-03-01T13:29:50;20;18;
65012;PMS5003;51715;39.432;-77.518;2023-03-01T13:32:21;12;12;
65012;PMS5003;51715;39.432;-77.518;2023-03-01T13:34:52;19;18;
65012;PMS5003;51715;39.432;-77.518;2023-03-01T13:37:26;19;19;
65012;PMS5003;51715;39.432;-77.518;2023-03-01T13:39:58;19;15;
65012;PMS5003;51715;39.432;-77.518;2023-03-01T13:42:32;18;17;
65012;PMS5003;51715;39.432;-77.518;2023-03-01T13:45:05;23;20;
65012;PMS5003;51715;39.432;-77.518;2023-03-01T13:47:46;17;17;
65012;PMS5003;51715;39.432;-77.518;2023-03-01T13:50:19;27;25;
65012;PMS5003;51715;39.432;-77.518;2023-03-01T13:52:53;19;17;
65012;PMS5003;51715;39.432;-77.518;2023-03-01T13:55:24;21;18;
65012;PMS5003;51715;39.432;-77.518;2023-03-01T13:57:57;24;20;
65012;PMS5003;51715;39.432;-77.518;2023-03-01T14:00:28;18;17;
65012;PMS5003;51715;39.432;-77.518;2023-03-01T14:03:01;22;21;
65012;PMS5003;51715;39.432;-77.518;2023-03-01T14:05:32;24;20;
65012;PMS5003;51715;39.432;-77.518;2023-03-01T14:08:01;20;20;
65012;PMS5003;51715;39.432;-77.518;2023-03-01T14:10:32;24;22;
65012;PMS5003;51715;39.432;-77.518;2023-03-01T14:13:17;22;20;
65012;PMS5003;51715;39.432;-77.518;2023-03-01T14:16:01;24;22;
65012;PMS5003;51715;39.432;-77.518;2023-03-01T14:18:40;22;21;
65012;PMS5003;51715;39.432;-77.518;2023-03-01T14:21:15;20;19;
65012;PMS5003;51715;39.432;-77.518;2023-03-01T14:23:44;22;21;
65012;PMS5003;51715;39.432;-77.518;2023-03-01T14:26:13;20;19;
65012;PMS5003;51715;39.432;-77.518;2023-03-01T14:28:49;24;22;
65012;PMS5003;51715;39.432;-77.518;2023-03-01T14:31:31;20;18;
65012;PMS5003;51715;39.432;-77.518;2023-03-01T14:34:03;18;17;
65012;PMS5003;51715;39.432;-77.518;2023-03-01T14:36:33;22;20;
65012;PMS5003;51715;39.432;-77.518;2023-03-01T14:39:15;19;19;
65012;PMS5003;51715;39.432;-77.518;2023-03-01T14:41:45;25;24;
65012;PMS5003;51715;39.432;-77.518;2023-03-01T14:44:15;23;21;
65012;PMS5003;51715;39.432;-77.518;2023-03-01T14:46:47;25;22;
65012;PMS5003;51715;39.432;-77.518;2023-03-01T14:49:22;23;19;
65012;PMS5003;51715;39.432;-77.518;2023-03-01T14:51:58;17;16;
65012;PMS5003;51715;39.432;-77.518;2023-03-01T14:54:31;18;18;
65012;PMS5003;51715;39.432;-77.518;2023-03-01T14:57:12;19;18;
65012;PMS5003;51715;39.432;-77.518;2023-03-01T14:59:44;19;19;
65012;PMS5003;51715;39.432;-77.518;2023-03-01T15:02:15;14;13;
65012;PMS5003;51715;39.432;-77.518;2023-03-01T15:04:46;19;19;
65012;PMS5003;51715;39.432;-77.518;2023-03-01T15:07:18;17;16;
65012;PMS5003;51715;39.432;-77.518;2023-03-01T15:09:57;17;14;
65012;PMS5003;51715;39.432;-77.518;2023-03-01T15:38:49;15;13;
